Shamrock, Texas
Current Conditions -  °F | °C
As of 12:15 AM on Thursday 29 Jan 2015 (Local Time) from KHHF Reporting Station
Clear Clear  
Wind Chill: 52°   Ceiling: Unl
Heat Index: 52°   Visibility: 10mi
Dew Point: 34°   Wind: 0mph
Humidity: 49%   Direction: NA
Pressure: 30.18"   Gusts: NA
Location:  35.21°N, 100.25°W
Report Text: KHHF 290615Z AUTO 00000KT 10SM CLR 11/01 A3018 RMK AO2 T01130009
Loading
Personal Weather Stations






























Interactive Weather Map New forecast layout! Learn more

10-Day Weather Forecast

Advertisements
Track Severe Weather on mobile